VKG458 LGKR-EKCH
Flight info
| Callsign | VKG458 |
|---|---|
| Flight time | N/A |
| Altitude | 33000 |
| Route | NIKRO M127 ALELU DCT PODOB DCT SIVLA DCT OSDUK DCT ADAMA DCT ODNEM DCT HDO M725 LABES T298 MONAK |
| Aircraft | A321/M-SDE3FGHIRWY/LB1 |
Departure
| Time | 2026-05-06 17:15 |
|---|---|
| Airport | Corfu Ioannis Kapodistrias International Airport (LGKR) |
Arrival
| Time | N/A |
|---|---|
| Airport | Copenhagen Kastrup Airport (EKCH) |
| Time | Latitude | Longitude | Altitude | Speed | Heading |
|---|---|---|---|---|---|
| 2026-05-06 16:47 | 39.60705 | 19.91344 | 20 ft | 0 kts | 79° |
| 2026-05-06 16:48 | 39.60705 | 19.91346 | 19 ft | 0 kts | 79° |
| 2026-05-06 17:06 | 39.60703 | 19.91335 | 18 ft | 4 kts | 79° |
| 2026-05-06 17:07 | 39.60698 | 19.91301 | 20 ft | 4 kts | 79° |
| 2026-05-06 17:07 | 39.60693 | 19.91267 | 21 ft | 4 kts | 79° |
| 2026-05-06 17:07 | 39.60688 | 19.91240 | 20 ft | 4 kts | 56° |
| 2026-05-06 17:07 | 39.60670 | 19.91225 | 22 ft | 4 kts | 355° |
| 2026-05-06 17:08 | 39.60646 | 19.91231 | 21 ft | 3 kts | 349° |
| 2026-05-06 17:08 | 39.60642 | 19.91232 | 21 ft | 0 kts | 349° |
| 2026-05-06 17:12 | 39.60646 | 19.91231 | 18 ft | 2 kts | 349° |
| 2026-05-06 17:12 | 39.60652 | 19.91229 | 18 ft | 0 kts | 349° |
| 2026-05-06 17:13 | 39.60662 | 19.91226 | 18 ft | 8 kts | 349° |
| 2026-05-06 17:13 | 39.60758 | 19.91202 | 18 ft | 15 kts | 349° |
| 2026-05-06 17:13 | 39.60858 | 19.91177 | 18 ft | 14 kts | 349° |
| 2026-05-06 17:14 | 39.60965 | 19.91149 | 20 ft | 20 kts | 349° |
| 2026-05-06 17:14 | 39.61128 | 19.91108 | 19 ft | 22 kts | 346° |
| 2026-05-06 17:14 | 39.61201 | 19.91008 | 21 ft | 14 kts | 247° |
| 2026-05-06 17:14 | 39.61114 | 19.90981 | 22 ft | 15 kts | 174° |
| 2026-05-06 17:15 | 39.60855 | 19.91042 | 20 ft | 77 kts | 168° |
| 2026-05-06 17:15 | 39.60068 | 19.91248 | 21 ft | 150 kts | 168° |
| 2026-05-06 17:15 | 39.58881 | 19.91554 | 152 ft | 192 kts | 169° |
| 2026-05-06 17:15 | 39.57585 | 19.91940 | 1070 ft | 187 kts | 163° |
| 2026-05-06 17:16 | 39.56585 | 19.92985 | 1963 ft | 193 kts | 124° |
| 2026-05-06 17:16 | 39.55978 | 19.94610 | 2492 ft | 214 kts | 116° |
| 2026-05-06 17:16 | 39.55077 | 19.96252 | 2999 ft | 234 kts | 136° |
| 2026-05-06 17:16 | 39.53868 | 19.97701 | 3911 ft | 239 kts | 141° |
| 2026-05-06 17:17 | 39.52575 | 19.99079 | 4858 ft | 242 kts | 143° |
| 2026-05-06 17:17 | 39.51238 | 20.00439 | 5721 ft | 247 kts | 144° |
| 2026-05-06 17:17 | 39.49995 | 20.01998 | 6527 ft | 254 kts | 127° |
| 2026-05-06 17:17 | 39.49252 | 20.04104 | 7260 ft | 262 kts | 104° |
| 2026-05-06 17:18 | 39.49200 | 20.06483 | 7987 ft | 269 kts | 79° |
| 2026-05-06 17:18 | 39.49880 | 20.08746 | 8707 ft | 274 kts | 56° |
| 2026-05-06 17:18 | 39.51211 | 20.10516 | 9420 ft | 277 kts | 29° |
| 2026-05-06 17:18 | 39.52946 | 20.11443 | 10330 ft | 273 kts | 8° |
| 2026-05-06 17:19 | 39.54891 | 20.11437 | 10707 ft | 287 kts | 344° |
| 2026-05-06 17:19 | 39.56922 | 20.10879 | 11021 ft | 311 kts | 348° |
| 2026-05-06 17:19 | 39.59118 | 20.10585 | 11142 ft | 332 kts | 354° |
| 2026-05-06 17:19 | 39.61517 | 20.10442 | 11350 ft | 348 kts | 355° |
| 2026-05-06 17:20 | 39.63937 | 20.10346 | 11838 ft | 354 kts | 355° |
| 2026-05-06 17:20 | 39.66408 | 20.10225 | 12416 ft | 357 kts | 355° |
| 2026-05-06 17:20 | 39.68900 | 20.10055 | 12997 ft | 360 kts | 354° |
| 2026-05-06 17:20 | 39.71411 | 20.09834 | 13575 ft | 364 kts | 353° |
| 2026-05-06 17:21 | 39.73945 | 20.09582 | 14137 ft | 367 kts | 353° |
| 2026-05-06 17:21 | 39.76500 | 20.09312 | 14669 ft | 369 kts | 353° |
| 2026-05-06 17:21 | 39.79071 | 20.09035 | 15235 ft | 372 kts | 353° |
| 2026-05-06 17:21 | 39.81657 | 20.08758 | 15754 ft | 374 kts | 353° |
| 2026-05-06 17:22 | 39.84266 | 20.08482 | 16277 ft | 377 kts | 352° |
| 2026-05-06 17:22 | 39.86888 | 20.08209 | 16796 ft | 380 kts | 352° |
| 2026-05-06 17:22 | 39.89533 | 20.07939 | 17313 ft | 382 kts | 352° |
| 2026-05-06 17:22 | 39.92202 | 20.07670 | 17817 ft | 385 kts | 352° |
| 2026-05-06 17:23 | 39.94881 | 20.07402 | 18329 ft | 387 kts | 352° |
| 2026-05-06 17:23 | 39.97576 | 20.07129 | 18750 ft | 390 kts | 352° |
| 2026-05-06 17:23 | 40.00297 | 20.06850 | 19167 ft | 392 kts | 352° |
| 2026-05-06 17:23 | 40.03027 | 20.06569 | 19591 ft | 394 kts | 352° |
| 2026-05-06 17:24 | 40.05725 | 20.06291 | 20035 ft | 396 kts | 352° |
| 2026-05-06 17:24 | 40.08475 | 20.06005 | 20433 ft | 398 kts | 352° |
| 2026-05-06 17:24 | 40.11253 | 20.05718 | 20853 ft | 401 kts | 352° |
| 2026-05-06 17:24 | 40.14043 | 20.05427 | 21280 ft | 404 kts | 352° |
| 2026-05-06 17:25 | 40.16857 | 20.05139 | 21685 ft | 406 kts | 352° |
| 2026-05-06 17:25 | 40.19683 | 20.04850 | 22076 ft | 409 kts | 352° |
| 2026-05-06 17:25 | 40.22530 | 20.04559 | 22492 ft | 412 kts | 352° |
| 2026-05-06 17:25 | 40.25397 | 20.04264 | 22916 ft | 414 kts | 352° |
| 2026-05-06 17:26 | 40.28273 | 20.03964 | 23291 ft | 416 kts | 352° |
| 2026-05-06 17:26 | 40.31167 | 20.03662 | 23657 ft | 418 kts | 352° |
| 2026-05-06 17:26 | 40.34081 | 20.03360 | 23989 ft | 420 kts | 352° |
| 2026-05-06 17:26 | 40.37004 | 20.03058 | 24340 ft | 422 kts | 352° |
| 2026-05-06 17:27 | 40.39926 | 20.02754 | 24695 ft | 423 kts | 352° |
| 2026-05-06 17:27 | 40.42869 | 20.02446 | 25054 ft | 424 kts | 352° |
| 2026-05-06 17:27 | 40.45815 | 20.02137 | 25362 ft | 426 kts | 352° |
| 2026-05-06 17:27 | 40.48782 | 20.01827 | 25661 ft | 428 kts | 352° |